CSN7701 RJBB-RJSS
Flight info
| Callsign | CSN7701 |
|---|---|
| Flight time | 0h 55m |
| Altitude | 33000 |
| Route | SOVRI UPRAL UENOH KCC Y88 TENRU Y15 OWLET |
| Aircraft | A320/M-SDE3FGHIRWY/LB1 |
Departure
| Time | 2026-05-06 14:15 |
|---|---|
| Airport | Kansai International Airport (RJBB) |
Arrival
| Time | 2026-05-06 15:10 |
|---|---|
| Airport | Sendai Airport (RJSS) |
| Time | Latitude | Longitude | Altitude | Speed | Heading |
|---|---|---|---|---|---|
| 2026-05-06 13:35 | 34.43048 | 135.24040 | 19 ft | 0 kts | 321° |
| 2026-05-06 14:06 | 34.43042 | 135.24046 | 19 ft | 4 kts | 321° |
| 2026-05-06 14:06 | 34.43021 | 135.24067 | 19 ft | 4 kts | 321° |
| 2026-05-06 14:06 | 34.42999 | 135.24086 | 20 ft | 4 kts | 336° |
| 2026-05-06 14:07 | 34.42975 | 135.24093 | 19 ft | 4 kts | 16° |
| 2026-05-06 14:07 | 34.42962 | 135.24084 | 19 ft | 1 kts | 51° |
| 2026-05-06 14:11 | 34.42970 | 135.24096 | 20 ft | 9 kts | 51° |
| 2026-05-06 14:11 | 34.43024 | 135.24177 | 19 ft | 14 kts | 51° |
| 2026-05-06 14:11 | 34.43090 | 135.24276 | 19 ft | 16 kts | 51° |
| 2026-05-06 14:11 | 34.43148 | 135.24398 | 19 ft | 18 kts | 93° |
| 2026-05-06 14:12 | 34.43167 | 135.24537 | 19 ft | 19 kts | 49° |
| 2026-05-06 14:12 | 34.43255 | 135.24670 | 19 ft | 21 kts | 51° |
| 2026-05-06 14:12 | 34.43354 | 135.24814 | 20 ft | 23 kts | 50° |
| 2026-05-06 14:12 | 34.43461 | 135.24973 | 19 ft | 25 kts | 51° |
| 2026-05-06 14:13 | 34.43576 | 135.25147 | 19 ft | 27 kts | 51° |
| 2026-05-06 14:13 | 34.43699 | 135.25331 | 19 ft | 29 kts | 51° |
| 2026-05-06 14:13 | 34.43802 | 135.25482 | 17 ft | 17 kts | 50° |
| 2026-05-06 14:13 | 34.43843 | 135.25615 | 18 ft | 17 kts | 95° |
| 2026-05-06 14:14 | 34.43824 | 135.25749 | 25 ft | 16 kts | 115° |
| 2026-05-06 14:14 | 34.43742 | 135.25837 | 24 ft | 13 kts | 161° |
| 2026-05-06 14:14 | 34.43655 | 135.25785 | 21 ft | 17 kts | 232° |
| 2026-05-06 14:14 | 34.43564 | 135.25648 | 17 ft | 37 kts | 231° |
| 2026-05-06 14:15 | 34.43248 | 135.25177 | 20 ft | 104 kts | 231° |
| 2026-05-06 14:15 | 34.42676 | 135.24325 | 18 ft | 154 kts | 231° |
| 2026-05-06 14:15 | 34.41949 | 135.23214 | 280 ft | 174 kts | 233° |
| 2026-05-06 14:15 | 34.41248 | 135.21992 | 882 ft | 178 kts | 236° |
| 2026-05-06 14:16 | 34.40541 | 135.20716 | 1342 ft | 192 kts | 235° |
| 2026-05-06 14:16 | 34.39749 | 135.19295 | 1607 ft | 217 kts | 235° |
| 2026-05-06 14:16 | 34.38855 | 135.17701 | 1997 ft | 241 kts | 234° |
| 2026-05-06 14:16 | 34.37880 | 135.15964 | 2666 ft | 254 kts | 234° |
| 2026-05-06 14:17 | 34.36882 | 135.14181 | 3563 ft | 258 kts | 234° |
| 2026-05-06 14:17 | 34.35878 | 135.12366 | 4494 ft | 261 kts | 238° |
| 2026-05-06 14:17 | 34.35352 | 135.10231 | 5336 ft | 268 kts | 271° |
| 2026-05-06 14:17 | 34.35924 | 135.08091 | 6184 ft | 274 kts | 305° |
| 2026-05-06 14:18 | 34.37417 | 135.06661 | 7005 ft | 281 kts | 338° |
| 2026-05-06 14:18 | 34.39364 | 135.06436 | 7798 ft | 288 kts | 11° |
| 2026-05-06 14:18 | 34.41146 | 135.07523 | 8580 ft | 293 kts | 44° |
| 2026-05-06 14:18 | 34.42210 | 135.09610 | 9358 ft | 297 kts | 75° |
| 2026-05-06 14:19 | 34.42467 | 135.12099 | 10119 ft | 301 kts | 89° |
| 2026-05-06 14:19 | 34.42525 | 135.14723 | 10418 ft | 323 kts | 89° |
| 2026-05-06 14:19 | 34.42582 | 135.17538 | 10598 ft | 346 kts | 89° |
| 2026-05-06 14:19 | 34.42640 | 135.20509 | 10972 ft | 359 kts | 89° |
| 2026-05-06 14:20 | 34.42903 | 135.23552 | 11567 ft | 366 kts | 83° |
| 2026-05-06 14:20 | 34.43267 | 135.26622 | 12218 ft | 371 kts | 82° |
| 2026-05-06 14:20 | 34.43652 | 135.29728 | 12851 ft | 376 kts | 82° |
| 2026-05-06 14:20 | 34.44056 | 135.32870 | 13477 ft | 380 kts | 81° |
| 2026-05-06 14:21 | 34.44534 | 135.36044 | 14075 ft | 385 kts | 79° |
| 2026-05-06 14:21 | 34.45074 | 135.39240 | 14643 ft | 389 kts | 78° |
| 2026-05-06 14:21 | 34.45643 | 135.42462 | 15213 ft | 393 kts | 78° |
| 2026-05-06 14:21 | 34.46217 | 135.45717 | 15780 ft | 396 kts | 78° |
| 2026-05-06 14:22 | 34.46781 | 135.48994 | 16341 ft | 400 kts | 78° |
| 2026-05-06 14:22 | 34.47338 | 135.52309 | 16929 ft | 403 kts | 78° |
| 2026-05-06 14:22 | 34.47890 | 135.55656 | 17512 ft | 407 kts | 78° |
| 2026-05-06 14:22 | 34.48440 | 135.59035 | 18091 ft | 410 kts | 78° |
| 2026-05-06 14:23 | 34.49002 | 135.62492 | 18647 ft | 414 kts | 78° |
| 2026-05-06 14:23 | 34.49643 | 135.65858 | 19149 ft | 418 kts | 72° |
| 2026-05-06 14:23 | 34.50749 | 135.69181 | 19674 ft | 421 kts | 62° |
| 2026-05-06 14:23 | 34.52301 | 135.72193 | 20183 ft | 423 kts | 51° |
| 2026-05-06 14:24 | 34.54087 | 135.75035 | 20700 ft | 426 kts | 51° |
| 2026-05-06 14:24 | 34.55894 | 135.77914 | 21201 ft | 430 kts | 51° |
| 2026-05-06 14:24 | 34.57707 | 135.80809 | 21677 ft | 433 kts | 51° |
| 2026-05-06 14:24 | 34.59537 | 135.83742 | 22142 ft | 437 kts | 51° |
| 2026-05-06 14:25 | 34.61373 | 135.86697 | 22596 ft | 441 kts | 51° |
| 2026-05-06 14:25 | 34.62597 | 135.88670 | 22897 ft | 443 kts | 51° |
| 2026-05-06 14:25 | 34.65089 | 135.92687 | 23494 ft | 447 kts | 51° |
| 2026-05-06 14:25 | 34.66971 | 135.95719 | 23872 ft | 451 kts | 51° |
| 2026-05-06 14:26 | 34.68222 | 135.97736 | 24087 ft | 454 kts | 51° |
| 2026-05-06 14:26 | 34.70777 | 136.01864 | 24504 ft | 459 kts | 51° |
| 2026-05-06 14:26 | 34.72052 | 136.03924 | 24715 ft | 462 kts | 51° |
| 2026-05-06 14:26 | 34.73988 | 136.07057 | 25031 ft | 466 kts | 51° |
| 2026-05-06 14:27 | 34.75943 | 136.10223 | 25326 ft | 470 kts | 51° |
| 2026-05-06 14:27 | 34.77914 | 136.13411 | 25627 ft | 474 kts | 51° |
| 2026-05-06 14:27 | 34.79900 | 136.16624 | 25936 ft | 477 kts | 51° |
| 2026-05-06 14:27 | 34.81930 | 136.19912 | 26244 ft | 481 kts | 51° |
| 2026-05-06 14:28 | 34.83945 | 136.23181 | 26546 ft | 485 kts | 51° |
| 2026-05-06 14:28 | 34.85985 | 136.26468 | 26848 ft | 488 kts | 50° |
| 2026-05-06 14:28 | 34.88053 | 136.29765 | 27157 ft | 491 kts | 50° |
| 2026-05-06 14:28 | 34.90173 | 136.33124 | 27469 ft | 495 kts | 50° |
| 2026-05-06 14:29 | 34.92253 | 136.36416 | 27755 ft | 499 kts | 50° |
| 2026-05-06 14:29 | 34.94376 | 136.39786 | 28034 ft | 503 kts | 50° |
| 2026-05-06 14:29 | 34.96510 | 136.43190 | 28306 ft | 507 kts | 50° |
| 2026-05-06 14:29 | 34.98653 | 136.46614 | 28567 ft | 511 kts | 50° |
| 2026-05-06 14:30 | 35.00815 | 136.50074 | 28838 ft | 514 kts | 50° |
| 2026-05-06 14:30 | 35.02988 | 136.53551 | 29106 ft | 517 kts | 50° |
| 2026-05-06 14:30 | 35.05180 | 136.57058 | 29373 ft | 521 kts | 50° |
| 2026-05-06 14:30 | 35.07375 | 136.60577 | 29713 ft | 522 kts | 50° |
| 2026-05-06 14:31 | 35.09571 | 136.64110 | 30112 ft | 523 kts | 50° |
| 2026-05-06 14:31 | 35.11771 | 136.67659 | 30436 ft | 524 kts | 50° |
| 2026-05-06 14:31 | 35.13972 | 136.71211 | 30756 ft | 525 kts | 50° |
| 2026-05-06 14:31 | 35.16180 | 136.74772 | 31069 ft | 526 kts | 50° |
| 2026-05-06 14:32 | 35.18395 | 136.78341 | 31376 ft | 528 kts | 50° |
| 2026-05-06 14:32 | 35.20613 | 136.81921 | 31687 ft | 529 kts | 50° |
| 2026-05-06 14:32 | 35.22832 | 136.85509 | 32006 ft | 530 kts | 50° |
| 2026-05-06 14:32 | 35.25053 | 136.89122 | 32325 ft | 532 kts | 53° |
| 2026-05-06 14:33 | 35.27030 | 136.93024 | 32646 ft | 535 kts | 62° |
| 2026-05-06 14:33 | 35.28603 | 136.97160 | 32950 ft | 537 kts | 66° |
| 2026-05-06 14:33 | 35.30116 | 137.01353 | 33108 ft | 539 kts | 66° |
| 2026-05-06 14:33 | 35.31632 | 137.05555 | 33143 ft | 542 kts | 66° |
| 2026-05-06 14:34 | 35.34678 | 137.14007 | 33144 ft | 543 kts | 66° |
| 2026-05-06 14:34 | 35.37733 | 137.22467 | 33148 ft | 544 kts | 66° |
| 2026-05-06 14:35 | 35.40823 | 137.30937 | 33150 ft | 544 kts | 65° |
| 2026-05-06 14:35 | 35.44022 | 137.39344 | 33157 ft | 545 kts | 64° |
| 2026-05-06 14:36 | 35.47259 | 137.47751 | 33161 ft | 545 kts | 64° |
| 2026-05-06 14:36 | 35.50486 | 137.56174 | 33164 ft | 545 kts | 65° |
| 2026-05-06 14:37 | 35.53654 | 137.64521 | 33170 ft | 546 kts | 65° |
| 2026-05-06 14:37 | 35.56892 | 137.73063 | 33168 ft | 546 kts | 65° |
| 2026-05-06 14:38 | 35.60085 | 137.81527 | 33173 ft | 547 kts | 65° |
| 2026-05-06 14:38 | 35.63189 | 137.90052 | 33171 ft | 546 kts | 66° |
| 2026-05-06 14:39 | 35.66622 | 137.98345 | 33179 ft | 545 kts | 54° |
| 2026-05-06 14:39 | 35.71670 | 138.05291 | 33175 ft | 537 kts | 35° |
| 2026-05-06 14:40 | 35.77515 | 138.10977 | 33176 ft | 536 kts | 33° |
| 2026-05-06 14:40 | 35.83358 | 138.16677 | 33179 ft | 537 kts | 33° |
| 2026-05-06 14:41 | 35.89194 | 138.22415 | 33194 ft | 537 kts | 33° |
| 2026-05-06 14:41 | 35.95026 | 138.28168 | 33201 ft | 537 kts | 33° |
| 2026-05-06 14:42 | 36.00861 | 138.33917 | 33206 ft | 537 kts | 33° |
| 2026-05-06 14:42 | 36.06687 | 138.39659 | 33207 ft | 535 kts | 33° |
| 2026-05-06 14:43 | 36.12516 | 138.45412 | 33209 ft | 535 kts | 33° |
| 2026-05-06 14:43 | 36.18327 | 138.51173 | 33217 ft | 535 kts | 33° |
| 2026-05-06 14:44 | 36.24135 | 138.56935 | 33212 ft | 535 kts | 33° |
| 2026-05-06 14:45 | 36.32820 | 138.65599 | 33219 ft | 535 kts | 33° |
| 2026-05-06 14:45 | 36.38642 | 138.71452 | 33227 ft | 533 kts | 33° |
| 2026-05-06 14:46 | 36.44395 | 138.77234 | 33228 ft | 531 kts | 33° |
| 2026-05-06 14:46 | 36.50138 | 138.83000 | 33227 ft | 529 kts | 33° |
| 2026-05-06 14:47 | 36.55850 | 138.88745 | 33224 ft | 527 kts | 33° |
| 2026-05-06 14:47 | 36.61546 | 138.94481 | 33225 ft | 526 kts | 33° |
| 2026-05-06 14:48 | 36.67221 | 139.00215 | 33215 ft | 525 kts | 33° |
| 2026-05-06 14:48 | 36.72874 | 139.05943 | 33213 ft | 523 kts | 33° |
| 2026-05-06 14:49 | 36.78508 | 139.11664 | 33215 ft | 522 kts | 34° |
| 2026-05-06 14:49 | 36.84126 | 139.17373 | 33206 ft | 520 kts | 33° |
| 2026-05-06 14:50 | 36.89733 | 139.23051 | 33209 ft | 518 kts | 33° |
| 2026-05-06 14:50 | 36.95320 | 139.28701 | 33209 ft | 516 kts | 34° |
| 2026-05-06 14:51 | 37.00884 | 139.34339 | 33200 ft | 513 kts | 34° |
| 2026-05-06 14:51 | 37.06412 | 139.39962 | 33192 ft | 511 kts | 34° |
| 2026-05-06 14:52 | 37.11957 | 139.45606 | 33185 ft | 510 kts | 34° |
| 2026-05-06 14:52 | 37.17453 | 139.51224 | 33189 ft | 509 kts | 34° |
| 2026-05-06 14:53 | 37.22931 | 139.56841 | 33186 ft | 508 kts | 34° |
| 2026-05-06 14:53 | 37.28393 | 139.62446 | 33183 ft | 506 kts | 34° |
| 2026-05-06 14:54 | 37.33867 | 139.68070 | 33181 ft | 504 kts | 34° |
| 2026-05-06 14:54 | 37.39210 | 139.73766 | 33039 ft | 505 kts | 40° |
| 2026-05-06 14:54 | 37.41515 | 139.77139 | 32160 ft | 509 kts | 52° |
| 2026-05-06 14:55 | 37.43432 | 139.80828 | 31412 ft | 498 kts | 54° |
| 2026-05-06 14:55 | 37.45281 | 139.84444 | 30708 ft | 486 kts | 54° |
| 2026-05-06 14:55 | 37.47099 | 139.87979 | 29975 ft | 476 kts | 54° |
| 2026-05-06 14:55 | 37.48889 | 139.91429 | 29159 ft | 466 kts | 53° |
| 2026-05-06 14:56 | 37.50651 | 139.94802 | 28358 ft | 457 kts | 53° |
| 2026-05-06 14:56 | 37.52384 | 139.98107 | 27591 ft | 448 kts | 53° |
| 2026-05-06 14:56 | 37.54086 | 140.01356 | 26829 ft | 441 kts | 53° |
| 2026-05-06 14:56 | 37.55199 | 140.03484 | 26333 ft | 436 kts | 53° |
| 2026-05-06 14:57 | 37.56853 | 140.06655 | 25621 ft | 430 kts | 53° |
| 2026-05-06 14:57 | 37.59022 | 140.10835 | 24683 ft | 422 kts | 53° |
| 2026-05-06 14:57 | 37.60613 | 140.13908 | 24008 ft | 416 kts | 54° |
| 2026-05-06 14:57 | 37.61649 | 140.15912 | 23537 ft | 412 kts | 54° |
| 2026-05-06 14:58 | 37.63230 | 140.18970 | 22708 ft | 406 kts | 54° |
| 2026-05-06 14:58 | 37.64763 | 140.21938 | 21949 ft | 401 kts | 54° |
| 2026-05-06 14:58 | 37.66754 | 140.25802 | 20945 ft | 393 kts | 54° |
| 2026-05-06 14:58 | 37.67752 | 140.27742 | 20446 ft | 389 kts | 54° |
| 2026-05-06 14:59 | 37.69215 | 140.30584 | 19728 ft | 383 kts | 55° |
| 2026-05-06 14:59 | 37.70657 | 140.33385 | 19028 ft | 378 kts | 55° |
| 2026-05-06 14:59 | 37.72086 | 140.36157 | 18326 ft | 374 kts | 55° |
| 2026-05-06 14:59 | 37.73496 | 140.38899 | 17538 ft | 370 kts | 56° |
| 2026-05-06 15:00 | 37.74887 | 140.41607 | 16766 ft | 366 kts | 56° |
| 2026-05-06 15:00 | 37.76265 | 140.44291 | 16017 ft | 362 kts | 56° |
| 2026-05-06 15:00 | 37.77624 | 140.46941 | 15276 ft | 358 kts | 57° |
| 2026-05-06 15:00 | 37.78938 | 140.49608 | 14563 ft | 355 kts | 58° |
| 2026-05-06 15:01 | 37.80202 | 140.52270 | 13855 ft | 351 kts | 59° |
| 2026-05-06 15:01 | 37.81439 | 140.54910 | 13073 ft | 348 kts | 59° |
| 2026-05-06 15:01 | 37.82665 | 140.57528 | 12300 ft | 344 kts | 59° |
| 2026-05-06 15:01 | 37.83895 | 140.60153 | 11538 ft | 340 kts | 59° |
| 2026-05-06 15:02 | 37.85099 | 140.62711 | 10821 ft | 337 kts | 59° |
| 2026-05-06 15:02 | 37.86279 | 140.65213 | 10359 ft | 326 kts | 59° |
| 2026-05-06 15:02 | 37.87426 | 140.67637 | 9870 ft | 316 kts | 59° |
| 2026-05-06 15:02 | 37.88533 | 140.69998 | 9349 ft | 308 kts | 59° |
| 2026-05-06 15:03 | 37.89603 | 140.72313 | 8832 ft | 301 kts | 59° |
| 2026-05-06 15:03 | 37.90638 | 140.74571 | 8326 ft | 294 kts | 59° |
| 2026-05-06 15:03 | 37.91656 | 140.76790 | 7828 ft | 288 kts | 59° |
| 2026-05-06 15:03 | 37.92652 | 140.78960 | 7342 ft | 283 kts | 59° |
| 2026-05-06 15:04 | 37.93633 | 140.81100 | 6858 ft | 279 kts | 59° |
| 2026-05-06 15:04 | 37.94601 | 140.83207 | 6371 ft | 275 kts | 59° |
| 2026-05-06 15:04 | 37.95558 | 140.85288 | 5873 ft | 272 kts | 60° |
| 2026-05-06 15:04 | 37.96500 | 140.87344 | 5362 ft | 268 kts | 60° |
| 2026-05-06 15:05 | 37.97429 | 140.89365 | 4868 ft | 264 kts | 61° |
| 2026-05-06 15:05 | 37.98459 | 140.91271 | 4355 ft | 261 kts | 47° |
| 2026-05-06 15:05 | 37.99873 | 140.92686 | 3863 ft | 258 kts | 34° |
| 2026-05-06 15:05 | 38.01366 | 140.93924 | 3371 ft | 255 kts | 34° |
| 2026-05-06 15:06 | 38.02827 | 140.95142 | 3049 ft | 244 kts | 34° |
| 2026-05-06 15:06 | 38.04177 | 140.96271 | 3001 ft | 220 kts | 34° |
| 2026-05-06 15:06 | 38.05431 | 140.97320 | 3007 ft | 210 kts | 34° |
| 2026-05-06 15:06 | 38.06649 | 140.98342 | 3019 ft | 209 kts | 34° |
| 2026-05-06 15:07 | 38.07834 | 140.99335 | 2834 ft | 212 kts | 34° |
| 2026-05-06 15:07 | 38.09117 | 141.00412 | 2135 ft | 216 kts | 33° |
| 2026-05-06 15:07 | 38.10353 | 141.01473 | 1391 ft | 212 kts | 35° |
| 2026-05-06 15:07 | 38.11498 | 141.02456 | 1265 ft | 185 kts | 21° |
| 2026-05-06 15:08 | 38.12676 | 141.02446 | 1270 ft | 164 kts | 326° |
| 2026-05-06 15:08 | 38.13348 | 141.01428 | 1399 ft | 146 kts | 299° |
| 2026-05-06 15:08 | 38.13921 | 141.00375 | 1216 ft | 143 kts | 307° |
| 2026-05-06 15:08 | 38.14571 | 140.99453 | 1038 ft | 140 kts | 310° |
| 2026-05-06 15:09 | 38.14989 | 140.98370 | 776 ft | 135 kts | 273° |
| 2026-05-06 15:09 | 38.14774 | 140.97242 | 614 ft | 133 kts | 248° |
| 2026-05-06 15:09 | 38.14560 | 140.96101 | 507 ft | 135 kts | 258° |
| 2026-05-06 15:09 | 38.14405 | 140.94929 | 295 ft | 134 kts | 260° |
| 2026-05-06 15:10 | 38.14291 | 140.93766 | 140 ft | 133 kts | 262° |
| 2026-05-06 15:10 | 38.14162 | 140.92612 | 29 ft | 126 kts | 261° |
| 2026-05-06 15:10 | 38.14068 | 140.91711 | 21 ft | 78 kts | 263° |
| 2026-05-06 15:10 | 38.14017 | 140.91230 | 21 ft | 38 kts | 262° |
| 2026-05-06 15:11 | 38.13961 | 140.91020 | 22 ft | 16 kts | 189° |
| 2026-05-06 15:11 | 38.13850 | 140.91063 | 21 ft | 18 kts | 128° |
| 2026-05-06 15:11 | 38.13850 | 140.91225 | 19 ft | 20 kts | 83° |
| 2026-05-06 15:11 | 38.13869 | 140.91415 | 17 ft | 24 kts | 83° |
| 2026-05-06 15:12 | 38.13891 | 140.91639 | 16 ft | 27 kts | 81° |
| 2026-05-06 15:12 | 38.13918 | 140.91871 | 18 ft | 26 kts | 79° |
| 2026-05-06 15:12 | 38.13945 | 140.92109 | 22 ft | 28 kts | 83° |
| 2026-05-06 15:12 | 38.13968 | 140.92363 | 22 ft | 30 kts | 82° |
| 2026-05-06 15:13 | 38.13993 | 140.92613 | 23 ft | 20 kts | 83° |
| 2026-05-06 15:13 | 38.14010 | 140.92779 | 23 ft | 18 kts | 82° |
| 2026-05-06 15:13 | 38.13970 | 140.92840 | 23 ft | 11 kts | 176° |
| 2026-05-06 15:13 | 38.13893 | 140.92853 | 23 ft | 11 kts | 172° |
| 2026-05-06 15:14 | 38.13872 | 140.92856 | 22 ft | 0 kts | 174° |
| 2026-05-06 15:15 | 38.13906 | 140.92851 | 21 ft | 0 kts | 173° |